createdAt,value
2023-02-19T00:01:48.797Z,37.30
2023-02-19T00:04:18.294Z,37.30
2023-02-19T00:06:46.413Z,37.40
2023-02-19T00:09:15.412Z,37.30
2023-02-19T00:11:42.804Z,37.30
2023-02-19T00:14:11.531Z,37.30
2023-02-19T00:16:39.747Z,37.30
2023-02-19T00:19:11.637Z,37.30
2023-02-19T00:21:38.310Z,37.30
2023-02-19T00:24:06.732Z,37.30
2023-02-19T00:26:34.061Z,37.30
2023-02-19T00:29:01.443Z,37.30
2023-02-19T00:31:33.596Z,37.30
2023-02-19T00:34:05.384Z,37.30
2023-02-19T00:36:35.746Z,37.20
2023-02-19T00:39:02.938Z,37.30
2023-02-19T00:41:30.477Z,37.30
2023-02-19T00:44:05.534Z,37.30
2023-02-19T00:46:37.864Z,37.30
2023-02-19T00:49:06.192Z,37.30
2023-02-19T00:51:36.141Z,37.30
2023-02-19T00:54:04.168Z,37.30
2023-02-19T00:56:30.894Z,37.20
2023-02-19T00:58:57.876Z,37.20
2023-02-19T01:01:24.521Z,37.20
2023-02-19T01:03:51.175Z,37.20
2023-02-19T01:06:19.441Z,37.30
2023-02-19T01:08:46.131Z,37.30
2023-02-19T01:11:13.413Z,37.30
2023-02-19T01:13:40.748Z,37.30
2023-02-19T01:16:19.279Z,37.30
2023-02-19T01:18:47.610Z,37.30
2023-02-19T01:21:17.408Z,37.20
2023-02-19T01:23:45.081Z,37.30
2023-02-19T01:26:14.913Z,37.30
2023-02-19T01:28:41.625Z,37.30
2023-02-19T01:31:13.392Z,37.20
2023-02-19T01:33:40.263Z,37.20
2023-02-19T01:36:07.563Z,37.30
2023-02-19T01:38:34.228Z,37.20
2023-02-19T01:41:05.880Z,37.30
2023-02-19T01:43:34.778Z,37.30
2023-02-19T01:46:02.418Z,37.30
2023-02-19T01:48:39.702Z,37.20
2023-02-19T01:51:11.135Z,37.30
2023-02-19T01:53:43.532Z,37.30
2023-02-19T01:56:11.467Z,37.30
2023-02-19T01:58:39.611Z,37.20
2023-02-19T02:01:08.515Z,37.30
2023-02-19T02:03:39.995Z,37.20
2023-02-19T02:06:19.013Z,37.30
2023-02-19T02:09:04.368Z,37.20
2023-02-19T02:11:31.137Z,37.20
2023-02-19T02:13:58.378Z,37.20
2023-02-19T02:16:25.008Z,37.20
2023-02-19T02:19:23.062Z,37.20
2023-02-19T02:22:12.688Z,37.20
2023-02-19T02:25:27.553Z,37.20
2023-02-19T02:28:06.802Z,37.30
2023-02-19T02:30:43.670Z,37.20
2023-02-19T02:33:35.466Z,37.20
2023-02-19T02:36:07.387Z,37.20
2023-02-19T02:38:38.754Z,37.30
2023-02-19T02:41:06.592Z,37.20
2023-02-19T02:43:33.354Z,37.30
2023-02-19T02:45:59.954Z,37.20
2023-02-19T02:48:45.019Z,37.20
2023-02-19T02:51:33.628Z,37.20
2023-02-19T02:54:38.338Z,37.20
2023-02-19T02:57:09.273Z,37.20
2023-02-19T02:59:39.938Z,37.30
2023-02-19T03:02:11.373Z,37.20
2023-02-19T03:05:24.239Z,37.20
2023-02-19T03:07:55.122Z,37.20
2023-02-19T03:10:33.931Z,37.20
2023-02-19T03:13:21.140Z,37.20
2023-02-19T03:16:24.406Z,37.20
2023-02-19T03:19:13.480Z,37.20
2023-02-19T03:21:43.186Z,37.20
2023-02-19T03:24:30.962Z,37.20
2023-02-19T03:27:04.374Z,37.90
2023-02-19T03:29:35.483Z,37.20
2023-02-19T03:32:08.636Z,37.20
2023-02-19T03:34:41.232Z,37.20
2023-02-19T03:37:24.451Z,37.20
2023-02-19T03:39:52.742Z,37.20
2023-02-19T03:42:49.351Z,37.20
2023-02-19T03:45:41.390Z,37.20
2023-02-19T03:48:25.200Z,37.20
2023-02-19T03:51:12.878Z,37.20
2023-02-19T03:53:52.820Z,37.20
2023-02-19T03:56:36.295Z,37.20
2023-02-19T03:59:13.258Z,37.20
2023-02-19T04:01:52.198Z,37.30
2023-02-19T04:04:28.265Z,37.20
2023-02-19T04:06:56.931Z,37.20
2023-02-19T04:09:27.234Z,37.20
2023-02-19T04:11:55.140Z,37.30
2023-02-19T04:14:29.137Z,37.20
2023-02-19T04:17:01.584Z,37.20
2023-02-19T04:19:30.719Z,37.20
2023-02-19T04:21:59.218Z,37.20
2023-02-19T04:24:33.122Z,37.20
2023-02-19T04:27:00.317Z,37.20
2023-02-19T04:29:26.957Z,37.20
2023-02-19T04:31:53.621Z,37.20
2023-02-19T04:34:20.313Z,37.30
2023-02-19T04:36:46.958Z,37.20
2023-02-19T04:39:13.597Z,37.20
2023-02-19T04:41:40.192Z,37.20
2023-02-19T04:44:06.749Z,37.20
2023-02-19T04:46:33.328Z,37.20
2023-02-19T04:48:59.877Z,37.20
2023-02-19T04:51:26.484Z,37.20
2023-02-19T04:53:53.184Z,37.10
2023-02-19T04:56:20.069Z,37.20
2023-02-19T04:58:46.629Z,37.20
2023-02-19T05:01:14.537Z,37.20
2023-02-19T05:03:41.417Z,37.10
2023-02-19T05:06:12.222Z,37.20
2023-02-19T05:08:38.949Z,37.20
2023-02-19T05:11:08.103Z,37.10
2023-02-19T05:13:36.172Z,37.10
2023-02-19T05:16:10.323Z,37.10
2023-02-19T05:18:37.102Z,37.20
2023-02-19T05:21:03.826Z,37.10
2023-02-19T05:23:30.412Z,37.20
2023-02-19T05:25:57.018Z,37.10
2023-02-19T05:28:28.694Z,37.10
2023-02-19T05:30:57.506Z,37.10
2023-02-19T05:33:25.843Z,37.10
2023-02-19T05:35:54.662Z,37.00
2023-02-19T05:38:22.724Z,37.10
2023-02-19T05:40:49.981Z,37.00
2023-02-19T05:43:17.087Z,37.10
2023-02-19T05:45:44.105Z,37.10
2023-02-19T05:48:11.510Z,37.10
2023-02-19T05:50:39.874Z,37.10
2023-02-19T05:53:06.766Z,37.10
2023-02-19T05:55:36.490Z,37.10
2023-02-19T05:58:03.717Z,37.10
2023-02-19T06:00:32.276Z,37.10
2023-02-19T06:02:58.931Z,37.10
2023-02-19T06:05:25.561Z,37.10
2023-02-19T06:07:52.158Z,37.10
2023-02-19T06:10:18.994Z,37.10
2023-02-19T06:12:45.794Z,37.10
2023-02-19T06:15:12.467Z,37.10
2023-02-19T06:17:39.425Z,37.10
2023-02-19T06:20:06.421Z,37.20
2023-02-19T06:22:32.999Z,37.20
2023-02-19T06:24:59.572Z,37.20
2023-02-19T06:27:26.234Z,37.30
2023-02-19T06:29:52.836Z,37.20
2023-02-19T06:32:19.504Z,37.20
2023-02-19T06:34:46.292Z,37.30
2023-02-19T06:37:13.119Z,37.20
2023-02-19T06:39:39.704Z,37.30
2023-02-19T06:42:06.285Z,37.20
2023-02-19T06:44:33.037Z,37.20
2023-02-19T06:46:59.685Z,37.30
2023-02-19T06:49:26.346Z,37.30
2023-02-19T06:51:52.915Z,37.30
2023-02-19T06:54:19.460Z,37.30
2023-02-19T06:56:47.142Z,37.20
2023-02-19T06:59:16.916Z,37.30
2023-02-19T07:01:44.702Z,37.30
2023-02-19T07:04:11.805Z,37.30
2023-02-19T07:06:38.559Z,37.30
2023-02-19T07:09:06.747Z,37.30
2023-02-19T07:11:35.196Z,37.30
2023-02-19T07:14:03.727Z,37.40
2023-02-19T07:16:30.446Z,37.30
2023-02-19T07:18:58.527Z,37.40
2023-02-19T07:21:25.646Z,37.50
2023-02-19T07:23:52.360Z,37.40
2023-02-19T07:26:20.304Z,37.40
2023-02-19T07:28:49.454Z,37.40
2023-02-19T07:31:18.013Z,37.40
2023-02-19T07:33:45.299Z,37.40
2023-02-19T07:36:12.461Z,37.30
2023-02-19T07:38:39.830Z,37.40
2023-02-19T07:41:07.389Z,37.30
2023-02-19T07:43:36.137Z,37.30
2023-02-19T07:46:07.401Z,37.40
2023-02-19T07:48:35.246Z,37.30
2023-02-19T07:51:03.500Z,37.30
2023-02-19T07:53:30.190Z,37.40
2023-02-19T07:56:01.903Z,37.40
2023-02-19T07:58:29.147Z,37.30
2023-02-19T08:00:55.889Z,37.30
2023-02-19T08:03:23.241Z,37.30
2023-02-19T08:05:51.383Z,37.30
2023-02-19T08:08:18.184Z,37.40
2023-02-19T08:11:03.402Z,37.40
2023-02-19T08:13:31.177Z,37.40
2023-02-19T08:16:17.073Z,37.40
2023-02-19T08:18:46.263Z,37.50
2023-02-19T08:21:13.993Z,37.50
2023-02-19T08:23:40.721Z,37.60
2023-02-19T08:26:07.545Z,37.60
2023-02-19T08:28:34.455Z,37.70
2023-02-19T08:31:04.039Z,37.70
2023-02-19T08:33:31.142Z,37.80
2023-02-19T08:36:04.497Z,37.80
2023-02-19T08:38:32.136Z,37.90
2023-02-19T08:40:58.970Z,37.80
2023-02-19T08:43:25.643Z,37.80
2023-02-19T08:45:54.391Z,37.90
2023-02-19T08:48:21.185Z,38.00
2023-02-19T08:50:57.509Z,38.00
2023-02-19T08:53:24.749Z,38.10
2023-02-19T08:55:52.426Z,38.10
2023-02-19T08:58:19.089Z,38.20
2023-02-19T09:00:45.712Z,38.30
2023-02-19T09:03:12.268Z,39.00
2023-02-19T09:05:39.641Z,38.40
2023-02-19T09:08:06.258Z,38.30
2023-02-19T09:10:32.858Z,38.30
2023-02-19T09:12:59.509Z,38.50
2023-02-19T09:15:26.185Z,38.40
2023-02-19T09:17:52.890Z,38.50
2023-02-19T09:20:19.558Z,38.50
2023-02-19T09:22:46.270Z,38.40
2023-02-19T09:25:12.952Z,38.40
2023-02-19T09:27:39.607Z,38.40
2023-02-19T09:30:06.790Z,38.40
2023-02-19T09:32:33.877Z,38.20
2023-02-19T09:35:00.494Z,38.00
2023-02-19T09:37:27.937Z,38.00
2023-02-19T09:39:55.225Z,38.00
2023-02-19T09:42:32.574Z,37.80
2023-02-19T09:45:01.260Z,37.80
2023-02-19T09:47:32.726Z,37.70
2023-02-19T09:50:05.078Z,37.70
2023-02-19T09:52:39.846Z,37.60
2023-02-19T09:55:19.939Z,37.50
2023-02-19T09:57:48.370Z,37.50
2023-02-19T10:00:27.091Z,37.50
2023-02-19T10:03:05.669Z,37.60
2023-02-19T10:05:33.897Z,37.60
2023-02-19T10:08:04.500Z,37.60
2023-02-19T10:10:35.043Z,37.50
2023-02-19T10:13:24.792Z,37.30
2023-02-19T10:15:54.643Z,37.10
2023-02-19T10:18:24.669Z,37.10
2023-02-19T10:20:52.897Z,36.90
2023-02-19T10:23:20.192Z,36.80
2023-02-19T10:25:56.995Z,36.60
2023-02-19T10:28:30.033Z,36.60
2023-02-19T10:30:59.089Z,36.50
2023-02-19T10:33:26.293Z,36.50
2023-02-19T10:35:58.818Z,36.40
2023-02-19T10:38:34.106Z,36.40
2023-02-19T10:41:07.646Z,36.30
2023-02-19T10:43:41.485Z,36.20
2023-02-19T10:46:24.152Z,36.10
2023-02-19T10:48:55.049Z,36.00
2023-02-19T10:51:30.293Z,36.10
2023-02-19T10:54:31.155Z,36.30
2023-02-19T10:57:18.952Z,37.00
2023-02-19T10:59:57.770Z,36.20
2023-02-19T11:02:25.838Z,36.10
2023-02-19T11:05:14.629Z,36.10
2023-02-19T11:07:56.248Z,36.10
2023-02-19T11:10:33.891Z,36.00
2023-02-19T11:13:03.407Z,36.00
2023-02-19T11:15:35.514Z,36.10
2023-02-19T11:18:08.405Z,36.00
2023-02-19T11:20:35.424Z,36.00
2023-02-19T11:23:14.893Z,36.00
2023-02-19T11:25:49.728Z,36.00
2023-02-19T11:28:36.973Z,35.90
2023-02-19T11:31:28.316Z,36.00
2023-02-19T11:34:29.780Z,35.90
2023-02-19T11:37:12.209Z,36.00
2023-02-19T11:39:41.021Z,35.90
2023-02-19T11:42:38.259Z,35.90
2023-02-19T11:45:50.570Z,35.90
2023-02-19T11:48:32.382Z,36.10
2023-02-19T11:51:20.069Z,36.40
2023-02-19T11:53:54.593Z,36.40
2023-02-19T11:56:33.994Z,36.60
2023-02-19T11:59:05.368Z,36.40
2023-02-19T12:02:06.418Z,36.50
2023-02-19T12:05:06.990Z,36.60
2023-02-19T12:07:51.834Z,36.70
2023-02-19T12:10:32.385Z,36.90
2023-02-19T12:13:11.302Z,36.80
2023-02-19T12:16:08.770Z,36.80
2023-02-19T12:19:06.076Z,36.70
2023-02-19T12:21:41.527Z,36.70
2023-02-19T12:24:14.245Z,36.70
2023-02-19T12:26:47.719Z,36.90
2023-02-19T12:29:35.821Z,36.80
2023-02-19T12:32:13.150Z,36.80
2023-02-19T12:35:04.234Z,36.80
2023-02-19T12:37:56.898Z,36.70
2023-02-19T12:41:02.743Z,36.70
2023-02-19T12:43:31.135Z,37.30
2023-02-19T12:45:58.145Z,36.60
2023-02-19T12:49:05.642Z,36.50
2023-02-19T12:51:38.130Z,36.40
2023-02-19T12:54:18.688Z,36.40
2023-02-19T12:57:00.446Z,36.40
2023-02-19T12:59:39.011Z,36.30
2023-02-19T13:02:30.596Z,36.20
2023-02-19T13:05:08.181Z,36.10
2023-02-19T13:07:46.727Z,35.90
2023-02-19T13:10:43.646Z,35.90
2023-02-19T13:13:19.168Z,35.90
2023-02-19T13:15:50.580Z,36.00
2023-02-19T13:18:26.219Z,36.00
2023-02-19T13:20:55.602Z,36.00
2023-02-19T13:24:00.496Z,36.00
2023-02-19T13:26:37.239Z,36.00
2023-02-19T13:29:33.378Z,36.00
2023-02-19T13:32:09.893Z,35.80
2023-02-19T13:34:58.418Z,35.80
2023-02-19T13:37:25.859Z,35.80
2023-02-19T13:39:54.530Z,35.80
2023-02-19T13:42:39.239Z,35.70
2023-02-19T13:45:06.966Z,35.60
2023-02-19T13:47:57.656Z,35.60
2023-02-19T13:50:33.041Z,35.60
2023-02-19T13:53:01.388Z,35.60
2023-02-19T13:55:47.053Z,35.40
2023-02-19T13:58:32.339Z,35.40
2023-02-19T14:01:44.028Z,35.40
2023-02-19T14:04:25.780Z,35.40
2023-02-19T14:07:04.372Z,35.40
2023-02-19T14:09:45.839Z,35.40
2023-02-19T14:12:16.274Z,35.40
2023-02-19T14:14:47.646Z,35.40
2023-02-19T14:17:27.872Z,35.40
2023-02-19T14:20:04.354Z,35.30
2023-02-19T14:22:51.871Z,35.30
2023-02-19T14:25:18.453Z,35.30
2023-02-19T14:27:45.668Z,35.30
2023-02-19T14:30:13.779Z,35.30
2023-02-19T14:32:43.593Z,35.30
2023-02-19T14:35:20.383Z,35.40
2023-02-19T14:37:48.794Z,35.20
2023-02-19T14:40:23.606Z,35.20
2023-02-19T14:42:55.399Z,35.10
2023-02-19T14:45:23.638Z,35.20
2023-02-19T14:47:52.706Z,35.20
2023-02-19T14:50:31.331Z,35.20
2023-02-19T14:53:07.536Z,35.10
2023-02-19T14:55:38.410Z,35.20
2023-02-19T14:58:08.533Z,35.10
2023-02-19T15:00:38.534Z,35.10
2023-02-19T15:03:06.604Z,35.10
2023-02-19T15:05:36.602Z,35.10
2023-02-19T15:08:15.675Z,35.10
2023-02-19T15:10:43.240Z,34.90
2023-02-19T15:13:17.301Z,35.10
2023-02-19T15:15:45.965Z,35.00
2023-02-19T15:18:20.081Z,35.00
2023-02-19T15:20:47.425Z,35.00
2023-02-19T15:23:22.698Z,35.00
2023-02-19T15:25:49.862Z,34.80
2023-02-19T15:28:25.584Z,35.00
2023-02-19T15:31:06.162Z,34.80
2023-02-19T15:33:32.873Z,34.80
2023-02-19T15:36:05.735Z,34.80
2023-02-19T15:38:35.573Z,34.80
2023-02-19T15:41:02.551Z,34.70
2023-02-19T15:43:44.613Z,34.80
2023-02-19T15:46:22.184Z,34.60
2023-02-19T15:49:08.817Z,34.50
2023-02-19T15:51:43.537Z,34.60
2023-02-19T15:54:27.555Z,34.60
2023-02-19T15:56:59.935Z,34.60
2023-02-19T15:59:36.830Z,34.50
2023-02-19T16:02:04.247Z,34.30
2023-02-19T16:04:31.025Z,34.30
2023-02-19T16:07:00.380Z,34.20
2023-02-19T16:09:36.216Z,34.30
2023-02-19T16:12:25.031Z,34.10
2023-02-19T16:14:51.682Z,34.20
2023-02-19T16:17:22.916Z,34.20
2023-02-19T16:19:54.353Z,34.10
2023-02-19T16:22:29.314Z,34.00
2023-02-19T16:24:58.628Z,34.00
2023-02-19T16:27:32.946Z,34.10
2023-02-19T16:30:08.267Z,34.00
2023-02-19T16:32:35.002Z,34.00
2023-02-19T16:35:01.842Z,34.00
2023-02-19T16:37:40.832Z,34.10
2023-02-19T16:40:07.576Z,34.00
2023-02-19T16:42:35.559Z,34.10
2023-02-19T16:45:02.515Z,34.10
2023-02-19T16:47:34.705Z,34.20
2023-02-19T16:50:04.108Z,34.20
2023-02-19T16:52:30.926Z,34.20
2023-02-19T16:54:57.660Z,34.20
2023-02-19T16:57:24.406Z,34.20
2023-02-19T16:59:51.068Z,34.20
2023-02-19T17:02:23.554Z,34.30
2023-02-19T17:04:51.819Z,34.20
2023-02-19T17:07:19.010Z,34.30
2023-02-19T17:09:45.638Z,34.30
2023-02-19T17:12:13.997Z,34.30
2023-02-19T17:14:40.761Z,34.40
2023-02-19T17:17:07.443Z,34.40
2023-02-19T17:19:34.335Z,34.50
2023-02-19T17:22:01.044Z,34.50
2023-02-19T17:24:27.647Z,34.50
2023-02-19T17:26:54.298Z,34.50
2023-02-19T17:29:20.970Z,34.60
2023-02-19T17:31:47.635Z,34.60
2023-02-19T17:34:14.266Z,34.70
2023-02-19T17:36:43.125Z,34.60
2023-02-19T17:39:15.130Z,34.60
2023-02-19T17:41:41.842Z,34.70
2023-02-19T17:44:08.507Z,34.70
2023-02-19T17:46:35.459Z,34.80
2023-02-19T17:49:02.078Z,34.90
2023-02-19T17:51:28.657Z,34.80
2023-02-19T17:53:55.364Z,34.90
2023-02-19T17:56:26.018Z,35.00
2023-02-19T17:58:53.770Z,35.10
2023-02-19T18:01:21.345Z,35.10
2023-02-19T18:03:47.982Z,35.10
2023-02-19T18:06:14.641Z,35.00
2023-02-19T18:08:51.150Z,35.10
2023-02-19T18:11:18.614Z,35.10
2023-02-19T18:13:45.913Z,35.20
2023-02-19T18:16:15.454Z,35.80
2023-02-19T18:18:42.835Z,35.10
2023-02-19T18:21:10.309Z,35.10
2023-02-19T18:23:37.453Z,35.20
2023-02-19T18:26:07.357Z,35.30
2023-02-19T18:28:34.759Z,35.20
2023-02-19T18:31:01.980Z,35.20
2023-02-19T18:33:28.690Z,35.30
2023-02-19T18:35:55.270Z,36.00
2023-02-19T18:38:22.258Z,35.30
2023-02-19T18:40:48.801Z,35.30
2023-02-19T18:43:15.361Z,36.10
2023-02-19T18:45:43.249Z,35.40
2023-02-19T18:48:09.904Z,35.40
2023-02-19T18:50:36.593Z,35.50
2023-02-19T18:53:03.402Z,35.50
2023-02-19T18:55:30.040Z,35.50
2023-02-19T18:57:56.642Z,35.50
2023-02-19T19:00:26.479Z,35.50
2023-02-19T19:02:59.883Z,35.50
2023-02-19T19:05:26.860Z,35.50
2023-02-19T19:07:55.520Z,35.40
2023-02-19T19:10:22.918Z,35.50
2023-02-19T19:12:49.684Z,35.40
2023-02-19T19:15:18.419Z,35.40
2023-02-19T19:17:45.688Z,35.40
2023-02-19T19:20:12.734Z,35.40
2023-02-19T19:22:39.626Z,35.40
2023-02-19T19:25:06.692Z,35.40
2023-02-19T19:27:33.449Z,35.40
2023-02-19T19:30:00.200Z,35.50
2023-02-19T19:32:26.958Z,35.40
2023-02-19T19:34:53.621Z,35.40
2023-02-19T19:37:20.161Z,35.50
2023-02-19T19:39:46.721Z,35.60
2023-02-19T19:42:13.374Z,35.60
2023-02-19T19:44:40.107Z,35.60
2023-02-19T19:47:06.656Z,35.60
2023-02-19T19:49:33.389Z,35.60
2023-02-19T19:52:01.023Z,35.60
2023-02-19T19:54:28.119Z,35.70
2023-02-19T19:56:54.870Z,35.70
2023-02-19T19:59:22.325Z,35.70
2023-02-19T20:01:51.209Z,35.80
2023-02-19T20:04:20.033Z,36.00
2023-02-19T20:06:46.823Z,35.80
2023-02-19T20:09:14.466Z,35.90
2023-02-19T20:11:48.909Z,35.90
2023-02-19T20:14:16.847Z,36.70
2023-02-19T20:16:44.832Z,36.00
2023-02-19T20:19:11.594Z,36.10
2023-02-19T20:21:38.222Z,36.00
2023-02-19T20:24:05.260Z,36.00
2023-02-19T20:26:32.830Z,36.00
2023-02-19T20:28:59.399Z,36.10
2023-02-19T20:31:26.478Z,36.20
2023-02-19T20:33:53.335Z,36.20
2023-02-19T20:36:20.635Z,36.20
2023-02-19T20:38:49.182Z,36.20
2023-02-19T20:41:16.013Z,36.30
2023-02-19T20:43:42.567Z,36.30
2023-02-19T20:46:09.253Z,36.30
2023-02-19T20:48:36.034Z,36.40
2023-02-19T20:51:02.968Z,36.30
2023-02-19T20:53:31.709Z,37.20
2023-02-19T20:55:58.718Z,36.50
2023-02-19T20:58:25.942Z,36.50
2023-02-19T21:00:54.142Z,36.50
2023-02-19T21:03:21.436Z,36.60
2023-02-19T21:05:48.112Z,36.50
2023-02-19T21:08:17.120Z,36.50
2023-02-19T21:10:45.442Z,36.50
2023-02-19T21:13:12.871Z,36.50
2023-02-19T21:15:39.508Z,36.60
2023-02-19T21:18:06.376Z,36.70
2023-02-19T21:20:33.190Z,36.70
2023-02-19T21:23:00.769Z,36.70
2023-02-19T21:25:27.691Z,36.60
2023-02-19T21:27:54.388Z,36.70
2023-02-19T21:30:21.069Z,36.80
2023-02-19T21:32:47.734Z,36.90
2023-02-19T21:35:14.356Z,36.80
2023-02-19T21:37:44.292Z,36.80
2023-02-19T21:40:12.131Z,36.80
2023-02-19T21:42:38.888Z,36.90
2023-02-19T21:45:05.929Z,36.90
2023-02-19T21:47:32.825Z,36.90
2023-02-19T21:49:59.381Z,36.80
2023-02-19T21:52:26.849Z,37.00
2023-02-19T21:54:53.548Z,37.00
2023-02-19T21:57:20.225Z,37.00
2023-02-19T21:59:46.757Z,37.00
2023-02-19T22:02:13.543Z,37.00
2023-02-19T22:04:40.153Z,37.00
2023-02-19T22:07:06.746Z,37.00
2023-02-19T22:09:33.401Z,37.00
2023-02-19T22:11:59.969Z,37.00
2023-02-19T22:14:26.515Z,37.10
2023-02-19T22:16:53.189Z,37.00
2023-02-19T22:19:19.929Z,37.10
2023-02-19T22:21:46.525Z,37.10
2023-02-19T22:24:19.134Z,37.10
2023-02-19T22:26:46.450Z,37.10
2023-02-19T22:29:15.086Z,37.00
2023-02-19T22:31:42.157Z,37.00
2023-02-19T22:34:09.324Z,37.00
2023-02-19T22:36:39.713Z,37.10
2023-02-19T22:39:08.774Z,37.00
2023-02-19T22:41:35.398Z,37.10
2023-02-19T22:44:02.122Z,37.10
2023-02-19T22:46:30.286Z,37.10
2023-02-19T22:48:58.082Z,37.20
2023-02-19T22:51:24.997Z,37.10
2023-02-19T22:53:54.210Z,37.10
2023-02-19T22:56:22.618Z,37.20
2023-02-19T22:58:49.316Z,37.20
2023-02-19T23:01:16.685Z,37.10
2023-02-19T23:03:46.921Z,37.10
2023-02-19T23:06:14.388Z,37.20
2023-02-19T23:08:42.306Z,37.20
2023-02-19T23:11:10.538Z,37.10
2023-02-19T23:13:37.113Z,37.10
2023-02-19T23:16:04.658Z,37.10
2023-02-19T23:18:31.350Z,37.10
2023-02-19T23:20:57.891Z,37.10
2023-02-19T23:23:24.482Z,37.10
2023-02-19T23:25:51.213Z,37.10
2023-02-19T23:28:17.782Z,37.10
2023-02-19T23:30:44.445Z,37.10
2023-02-19T23:33:11.026Z,37.10
2023-02-19T23:35:37.577Z,37.10
2023-02-19T23:38:04.293Z,37.10
2023-02-19T23:40:30.878Z,37.10
2023-02-19T23:42:57.498Z,37.20
2023-02-19T23:45:24.052Z,37.10
2023-02-19T23:47:50.598Z,37.10
2023-02-19T23:50:17.646Z,37.10
2023-02-19T23:52:44.218Z,37.10
2023-02-19T23:55:10.768Z,37.10
2023-02-19T23:57:37.374Z,37.10
